sensor_id;sensor_type;location;lat;lon;timestamp;pressure;altitude;pressure_sealevel;temperature;humidity
35878;BME280;21982;49.804;24.072;2022-12-24T00:02:06;96424.88;;;6.99;72.34
35878;BME280;21982;49.804;24.072;2022-12-24T00:04:31;96469.72;;;7.27;71.99
35878;BME280;21982;49.804;24.072;2022-12-24T00:06:56;96428.31;;;7.00;72.14
35878;BME280;21982;49.804;24.072;2022-12-24T00:09:23;96433.47;;;7.08;72.15
35878;BME280;21982;49.804;24.072;2022-12-24T00:11:49;96351.19;;;6.57;72.33
35878;BME280;21982;49.804;24.072;2022-12-24T00:14:14;96425.50;;;7.01;72.57
35878;BME280;21982;49.804;24.072;2022-12-24T00:16:39;96461.44;;;7.30;71.66
35878;BME280;21982;49.804;24.072;2022-12-24T00:19:05;96463.06;;;7.31;72.12
35878;BME280;21982;49.804;24.072;2022-12-24T00:21:30;96404.00;;;6.98;72.29
35878;BME280;21982;49.804;24.072;2022-12-24T00:23:55;96448.03;;;7.25;72.13
35878;BME280;21982;49.804;24.072;2022-12-24T00:26:21;96444.41;;;7.26;72.09
35878;BME280;21982;49.804;24.072;2022-12-24T00:28:46;96405.16;;;7.10;72.55
35878;BME280;21982;49.804;24.072;2022-12-24T00:31:16;96422.53;;;7.26;72.23
35878;BME280;21982;49.804;24.072;2022-12-24T00:33:44;96437.97;;;7.35;72.16
35878;BME280;21982;49.804;24.072;2022-12-24T00:36:09;96394.25;;;7.13;71.95
35878;BME280;21982;49.804;24.072;2022-12-24T00:38:35;96440.88;;;7.40;71.50
35878;BME280;21982;49.804;24.072;2022-12-24T00:41:02;96384.66;;;7.05;71.71
35878;BME280;21982;49.804;24.072;2022-12-24T00:43:28;96372.94;;;7.08;72.27
35878;BME280;21982;49.804;24.072;2022-12-24T00:45:54;96438.50;;;7.46;71.51
35878;BME280;21982;49.804;24.072;2022-12-24T00:48:20;96431.59;;;7.45;71.80
35878;BME280;21982;49.804;24.072;2022-12-24T00:50:47;96433.22;;;7.46;71.66
35878;BME280;21982;49.804;24.072;2022-12-24T00:53:13;96429.59;;;7.47;71.68
35878;BME280;21982;49.804;24.072;2022-12-24T00:55:38;96379.06;;;7.15;71.51
35878;BME280;21982;49.804;24.072;2022-12-24T00:58:07;96417.53;;;7.37;71.79
35878;BME280;21982;49.804;24.072;2022-12-24T01:00:32;96404.13;;;7.32;71.60
35878;BME280;21982;49.804;24.072;2022-12-24T01:02:58;96357.06;;;7.01;71.66
35878;BME280;21982;49.804;24.072;2022-12-24T01:05:24;96375.06;;;7.19;71.63
35878;BME280;21982;49.804;24.072;2022-12-24T01:07:49;96386.03;;;7.23;71.50
35878;BME280;21982;49.804;24.072;2022-12-24T01:10:17;96436.34;;;7.56;72.01
35878;BME280;21982;49.804;24.072;2022-12-24T01:12:45;96432.47;;;7.52;71.94
35878;BME280;21982;49.804;24.072;2022-12-24T01:15:11;96369.34;;;7.16;71.72
35878;BME280;21982;49.804;24.072;2022-12-24T01:17:39;96417.03;;;7.49;72.13
35878;BME280;21982;49.804;24.072;2022-12-24T01:20:07;96292.88;;;6.75;71.23
35878;BME280;21982;49.804;24.072;2022-12-24T01:22:33;96411.78;;;7.49;71.38
35878;BME280;21982;49.804;24.072;2022-12-24T01:24:59;96381.34;;;7.18;71.86
35878;BME280;21982;49.804;24.072;2022-12-24T01:27:25;96418.22;;;7.46;71.36
35878;BME280;21982;49.804;24.072;2022-12-24T01:29:50;96390.91;;;7.26;71.54
35878;BME280;21982;49.804;24.072;2022-12-24T01:32:15;96419.66;;;7.49;71.68
35878;BME280;21982;49.804;24.072;2022-12-24T01:34:41;96382.84;;;7.27;72.26
35878;BME280;21982;49.804;24.072;2022-12-24T01:37:06;96418.66;;;7.50;72.11
35878;BME280;21982;49.804;24.072;2022-12-24T01:39:33;96311.34;;;6.81;72.04
35878;BME280;21982;49.804;24.072;2022-12-24T01:41:58;96414.84;;;7.52;71.55
35878;BME280;21982;49.804;24.072;2022-12-24T01:44:43;96409.56;;;7.52;71.43
35878;BME280;21982;49.804;24.072;2022-12-24T01:47:17;96379.41;;;7.33;71.88
35878;BME280;21982;49.804;24.072;2022-12-24T01:49:51;96406.50;;;7.49;71.79
35878;BME280;21982;49.804;24.072;2022-12-24T01:52:21;96365.63;;;7.31;71.89
35878;BME280;21982;49.804;24.072;2022-12-24T01:55:07;96409.25;;;7.62;70.89
35878;BME280;21982;49.804;24.072;2022-12-24T01:57:41;96406.63;;;7.62;71.56
35878;BME280;21982;49.804;24.072;2022-12-24T02:00:11;96377.28;;;7.44;71.41
35878;BME280;21982;49.804;24.072;2022-12-24T02:02:39;96397.47;;;7.58;71.84
35878;BME280;21982;49.804;24.072;2022-12-24T02:05:33;96392.81;;;7.60;71.36
35878;BME280;21982;49.804;24.072;2022-12-24T02:08:02;96270.44;;;6.79;71.68
35878;BME280;21982;49.804;24.072;2022-12-24T02:10:27;96385.09;;;7.58;71.11
35878;BME280;21982;49.804;24.072;2022-12-24T02:12:53;96388.56;;;7.59;71.22
35878;BME280;21982;49.804;24.072;2022-12-24T02:15:57;96353.81;;;7.49;71.19
35878;BME280;21982;49.804;24.072;2022-12-24T02:21:39;96381.28;;;7.61;71.63
35878;BME280;21982;49.804;24.072;2022-12-24T02:24:27;96370.09;;;7.59;70.94
35878;BME280;21982;49.804;24.072;2022-12-24T02:35:11;96368.88;;;7.55;71.11
35878;BME280;21982;49.804;24.072;2022-12-24T02:37:43;96321.78;;;7.17;71.10
35878;BME280;21982;49.804;24.072;2022-12-24T02:40:36;96377.91;;;7.46;71.60
35878;BME280;21982;49.804;24.072;2022-12-24T02:43:09;96366.88;;;7.35;71.68
35878;BME280;21982;49.804;24.072;2022-12-24T02:45:39;96378.03;;;7.37;71.60
35878;BME280;21982;49.804;24.072;2022-12-24T02:48:08;96232.44;;;6.38;71.70
35878;BME280;21982;49.804;24.072;2022-12-24T02:50:34;96365.66;;;7.10;71.63
35878;BME280;21982;49.804;24.072;2022-12-24T02:52:59;96377.44;;;7.14;71.57
35878;BME280;21982;49.804;24.072;2022-12-24T02:55:58;96316.09;;;6.71;71.39
35878;BME280;21982;49.804;24.072;2022-12-24T02:59:03;96407.75;;;7.31;71.71
35878;BME280;21982;49.804;24.072;2022-12-24T03:12:08;96400.34;;;7.42;71.66
35878;BME280;21982;49.804;24.072;2022-12-24T03:14:37;96413.16;;;7.45;71.71
35878;BME280;21982;49.804;24.072;2022-12-24T03:17:04;96362.78;;;7.26;71.55
35878;BME280;21982;49.804;24.072;2022-12-24T03:19:32;96345.09;;;7.20;71.41
35878;BME280;21982;49.804;24.072;2022-12-24T03:21:59;96315.00;;;7.08;71.44
35878;BME280;21982;49.804;24.072;2022-12-24T03:24:27;96404.56;;;7.57;71.33
35878;BME280;21982;49.804;24.072;2022-12-24T03:26:52;96399.66;;;7.54;71.12
35878;BME280;21982;49.804;24.072;2022-12-24T03:29:18;96396.59;;;7.51;71.59
35878;BME280;21982;49.804;24.072;2022-12-24T03:31:47;96395.59;;;7.52;71.71
35878;BME280;21982;49.804;24.072;2022-12-24T03:34:14;96369.50;;;7.35;71.46
35878;BME280;21982;49.804;24.072;2022-12-24T03:36:40;96393.09;;;7.44;71.08
35878;BME280;21982;49.804;24.072;2022-12-24T03:39:06;96374.34;;;7.32;71.79
35878;BME280;21982;49.804;24.072;2022-12-24T03:41:32;96382.94;;;7.40;71.42
35878;BME280;21982;49.804;24.072;2022-12-24T03:43:59;96332.44;;;7.09;71.64
35878;BME280;21982;49.804;24.072;2022-12-24T03:46:24;96382.94;;;7.40;71.15
35878;BME280;21982;49.804;24.072;2022-12-24T03:48:49;96379.66;;;7.38;71.19
35878;BME280;21982;49.804;24.072;2022-12-24T03:51:16;96355.47;;;7.28;71.35
35878;BME280;21982;49.804;24.072;2022-12-24T03:53:43;96352.38;;;7.18;71.23
35878;BME280;21982;49.804;24.072;2022-12-24T03:56:09;96368.50;;;7.36;71.11
35878;BME280;21982;49.804;24.072;2022-12-24T03:58:34;96381.47;;;7.38;71.69
35878;BME280;21982;49.804;24.072;2022-12-24T04:01:00;96377.22;;;7.37;71.17
35878;BME280;21982;49.804;24.072;2022-12-24T04:03:25;96360.13;;;7.26;71.09
35878;BME280;21982;49.804;24.072;2022-12-24T04:06:08;96362.22;;;7.37;70.59
35878;BME280;21982;49.804;24.072;2022-12-24T04:08:34;96371.56;;;7.40;71.12
35878;BME280;21982;49.804;24.072;2022-12-24T04:11:05;96362.22;;;7.37;70.51
35878;BME280;21982;49.804;24.072;2022-12-24T04:13:30;96301.13;;;6.93;71.27
35878;BME280;21982;49.804;24.072;2022-12-24T04:16:02;96324.41;;;7.17;70.67
35878;BME280;21982;49.804;24.072;2022-12-24T04:18:28;96376.53;;;7.50;70.97
35878;BME280;21982;49.804;24.072;2022-12-24T04:20:53;96374.50;;;7.52;70.75
35878;BME280;21982;49.804;24.072;2022-12-24T04:23:19;96380.59;;;7.52;71.00
35878;BME280;21982;49.804;24.072;2022-12-24T04:25:46;96340.06;;;7.25;70.84
35878;BME280;21982;49.804;24.072;2022-12-24T04:28:12;96374.50;;;7.52;71.07
35878;BME280;21982;49.804;24.072;2022-12-24T04:30:40;96367.63;;;7.51;71.40
35878;BME280;21982;49.804;24.072;2022-12-24T04:33:06;96373.69;;;7.51;71.34
35878;BME280;21982;49.804;24.072;2022-12-24T04:35:31;96376.91;;;7.47;70.64
35878;BME280;21982;49.804;24.072;2022-12-24T04:37:57;96341.91;;;7.25;71.13
35878;BME280;21982;49.804;24.072;2022-12-24T04:40:22;96352.03;;;7.28;71.36
35878;BME280;21982;49.804;24.072;2022-12-24T04:42:48;96299.91;;;6.95;71.59
35878;BME280;21982;49.804;24.072;2022-12-24T04:45:16;96343.72;;;7.24;72.11
35878;BME280;21982;49.804;24.072;2022-12-24T04:47:42;96306.00;;;6.96;71.43
35878;BME280;21982;49.804;24.072;2022-12-24T04:50:08;96367.25;;;7.32;71.93
35878;BME280;21982;49.804;24.072;2022-12-24T04:52:33;96334.69;;;7.12;72.44
35878;BME280;21982;49.804;24.072;2022-12-24T04:54:59;96357.72;;;7.31;72.63
35878;BME280;21982;49.804;24.072;2022-12-24T04:57:24;96362.38;;;7.29;71.96
35878;BME280;21982;49.804;24.072;2022-12-24T04:59:49;96252.91;;;6.64;72.17
35878;BME280;21982;49.804;24.072;2022-12-24T05:02:17;96356.50;;;7.27;72.87
35878;BME280;21982;49.804;24.072;2022-12-24T05:04:42;96348.59;;;7.27;72.96
35878;BME280;21982;49.804;24.072;2022-12-24T05:07:08;96319.47;;;7.07;72.89
35878;BME280;21982;49.804;24.072;2022-12-24T05:09:33;96348.97;;;7.24;73.19
35878;BME280;21982;49.804;24.072;2022-12-24T05:11:59;96349.97;;;7.23;73.17
35878;BME280;21982;49.804;24.072;2022-12-24T05:14:25;96287.09;;;6.86;73.36
35878;BME280;21982;49.804;24.072;2022-12-24T05:16:50;96340.59;;;7.14;73.54
35878;BME280;21982;49.804;24.072;2022-12-24T05:19:16;96349.16;;;7.23;73.46
35878;BME280;21982;49.804;24.072;2022-12-24T05:21:41;96347.34;;;7.23;73.81
35878;BME280;21982;49.804;24.072;2022-12-24T05:24:10;96350.81;;;7.24;73.62
35878;BME280;21982;49.804;24.072;2022-12-24T05:26:56;96293.19;;;6.86;74.01
35878;BME280;21982;49.804;24.072;2022-12-24T05:29:22;96350.81;;;7.24;73.89
35878;BME280;21982;49.804;24.072;2022-12-24T05:31:48;96308.88;;;7.01;74.00
35878;BME280;21982;49.804;24.072;2022-12-24T05:34:15;96280.69;;;6.95;74.46
35878;BME280;21982;49.804;24.072;2022-12-24T05:36:41;96340.28;;;7.30;73.97
35878;BME280;21982;49.804;24.072;2022-12-24T05:39:07;96340.28;;;7.30;74.49
35878;BME280;21982;49.804;24.072;2022-12-24T05:41:34;96338.66;;;7.29;74.06
35878;BME280;21982;49.804;24.072;2022-12-24T05:43:59;96317.66;;;7.08;74.52
35878;BME280;21982;49.804;24.072;2022-12-24T05:46:25;96340.28;;;7.30;74.36
35878;BME280;21982;49.804;24.072;2022-12-24T05:48:51;96345.19;;;7.33;73.77
35878;BME280;21982;49.804;24.072;2022-12-24T05:51:19;96352.47;;;7.31;73.98
35878;BME280;21982;49.804;24.072;2022-12-24T05:53:46;96294.66;;;6.95;74.45
35878;BME280;21982;49.804;24.072;2022-12-24T05:56:15;96352.84;;;7.28;74.06
35878;BME280;21982;49.804;24.072;2022-12-24T05:58:42;96355.25;;;7.23;74.78
35878;BME280;21982;49.804;24.072;2022-12-24T06:01:09;96280.97;;;6.79;74.53
35878;BME280;21982;49.804;24.072;2022-12-24T06:03:35;96313.50;;;6.99;75.03
35878;BME280;21982;49.804;24.072;2022-12-24T06:06:11;96261.22;;;6.68;74.45
35878;BME280;21982;49.804;24.072;2022-12-24T06:08:40;96340.59;;;7.14;75.06
35878;BME280;21982;49.804;24.072;2022-12-24T06:11:09;96284.78;;;6.76;75.33
35878;BME280;21982;49.804;24.072;2022-12-24T06:13:35;96341.97;;;7.10;75.24
35878;BME280;21982;49.804;24.072;2022-12-24T06:16:03;96344.09;;;7.21;75.00
35878;BME280;21982;49.804;24.072;2022-12-24T06:18:31;96341.47;;;7.21;75.00
35878;BME280;21982;49.804;24.072;2022-12-24T06:20:57;96338.06;;;7.27;75.23
35878;BME280;21982;49.804;24.072;2022-12-24T06:23:23;96296.97;;;7.05;75.03
35878;BME280;21982;49.804;24.072;2022-12-24T06:25:49;96314.25;;;7.14;75.32
35878;BME280;21982;49.804;24.072;2022-12-24T06:28:15;96309.75;;;7.08;75.55
35878;BME280;21982;49.804;24.072;2022-12-24T06:30:45;96333.00;;;7.26;75.25
35878;BME280;21982;49.804;24.072;2022-12-24T06:33:11;96277.19;;;6.88;75.66
35878;BME280;21982;49.804;24.072;2022-12-24T06:35:36;96301.47;;;7.11;75.25
35878;BME280;21982;49.804;24.072;2022-12-24T06:38:02;96294.16;;;7.06;75.26
35878;BME280;21982;49.804;24.072;2022-12-24T06:40:29;96340.47;;;7.29;75.35
35878;BME280;21982;49.804;24.072;2022-12-24T06:42:54;96336.13;;;7.15;75.25
35878;BME280;21982;49.804;24.072;2022-12-24T06:45:20;96340.47;;;7.22;75.70
35878;BME280;21982;49.804;24.072;2022-12-24T06:47:45;96289.09;;;6.84;75.79
35878;BME280;21982;49.804;24.072;2022-12-24T06:50:11;96347.91;;;7.19;75.43
35878;BME280;21982;49.804;24.072;2022-12-24T06:52:36;96321.66;;;7.04;76.11
35878;BME280;21982;49.804;24.072;2022-12-24T06:55:03;96333.13;;;7.18;75.96
35878;BME280;21982;49.804;24.072;2022-12-24T06:57:28;96334.56;;;7.20;75.94
35878;BME280;21982;49.804;24.072;2022-12-24T06:59:56;96331.56;;;7.23;75.92
35878;BME280;21982;49.804;24.072;2022-12-24T07:02:21;96336.44;;;7.26;76.04
35878;BME280;21982;49.804;24.072;2022-12-24T07:04:46;96327.22;;;7.16;75.96
35878;BME280;21982;49.804;24.072;2022-12-24T07:07:12;96343.94;;;7.29;76.12
35878;BME280;21982;49.804;24.072;2022-12-24T09:05:22;96383.69;;;5.23;79.58
35878;BME280;21982;49.804;24.072;2022-12-24T09:07:48;96393.56;;;5.73;79.61
35878;BME280;21982;49.804;24.072;2022-12-24T09:10:13;96399.84;;;6.02;79.51
35878;BME280;21982;49.804;24.072;2022-12-24T09:12:38;96400.72;;;6.24;79.74
35878;BME280;21982;49.804;24.072;2022-12-24T09:15:05;96394.91;;;6.43;79.40
35878;BME280;21982;49.804;24.072;2022-12-24T09:17:32;96345.44;;;6.32;79.28
35878;BME280;21982;49.804;24.072;2022-12-24T09:19:58;96338.53;;;6.31;79.49
35878;BME280;21982;49.804;24.072;2022-12-24T09:22:23;96373.97;;;6.71;79.33
35878;BME280;21982;49.804;24.072;2022-12-24T09:24:49;96358.75;;;6.66;79.19
35878;BME280;21982;49.804;24.072;2022-12-24T09:27:14;96349.22;;;6.65;78.99
35878;BME280;21982;49.804;24.072;2022-12-24T09:29:39;96378.66;;;6.90;78.85
35878;BME280;21982;49.804;24.072;2022-12-24T09:32:06;96371.16;;;6.94;79.71
35878;BME280;21982;49.804;24.072;2022-12-24T09:34:32;96345.63;;;6.88;79.36
35878;BME280;21982;49.804;24.072;2022-12-24T09:36:57;96386.06;;;7.29;78.88
35878;BME280;21982;49.804;24.072;2022-12-24T09:39:24;96358.50;;;7.25;78.84
35878;BME280;21982;49.804;24.072;2022-12-24T09:44:50;96389.63;;;7.71;78.34
35878;BME280;21982;49.804;24.072;2022-12-24T09:47:25;96376.25;;;7.72;78.70
35878;BME280;21982;49.804;24.072;2022-12-24T09:49:55;96349.44;;;7.62;78.64
35878;BME280;21982;49.804;24.072;2022-12-24T09:52:29;96393.63;;;7.88;77.97
35878;BME280;21982;49.804;24.072;2022-12-24T09:55:06;96396.91;;;7.97;77.61
35878;BME280;21982;49.804;24.072;2022-12-24T09:57:39;96354.38;;;7.72;78.21
35878;BME280;21982;49.804;24.072;2022-12-24T10:02:49;96421.84;;;7.94;78.22
35878;BME280;21982;49.804;24.072;2022-12-24T10:05:17;96386.91;;;7.86;77.08
35878;BME280;21982;49.804;24.072;2022-12-24T10:08:02;96409.28;;;7.96;77.82
35878;BME280;21982;49.804;24.072;2022-12-24T10:10:52;96372.56;;;7.60;77.31
35878;BME280;21982;49.804;24.072;2022-12-24T10:16:03;96407.22;;;7.64;76.93
35878;BME280;21982;49.804;24.072;2022-12-24T10:19:04;96358.97;;;7.35;77.63
35878;BME280;21982;49.804;24.072;2022-12-24T10:24:23;96382.66;;;7.57;77.09
35878;BME280;21982;49.804;24.072;2022-12-24T10:27:04;96415.09;;;7.85;77.22
35878;BME280;21982;49.804;24.072;2022-12-24T10:29:35;96420.97;;;7.87;77.53
35878;BME280;21982;49.804;24.072;2022-12-24T10:34:40;96410.47;;;7.94;77.18
35878;BME280;21982;49.804;24.072;2022-12-24T10:37:10;96412.72;;;7.69;77.73
35878;BME280;21982;49.804;24.072;2022-12-24T10:39:38;96419.88;;;7.75;77.36
35878;BME280;21982;49.804;24.072;2022-12-24T10:42:05;96411.88;;;7.62;77.05
35878;BME280;21982;49.804;24.072;2022-12-24T10:44:32;96373.84;;;7.43;77.40
35878;BME280;21982;49.804;24.072;2022-12-24T10:46:58;96419.72;;;7.83;78.15
35878;BME280;21982;49.804;24.072;2022-12-24T10:49:45;96429.94;;;7.93;77.22
35878;BME280;21982;49.804;24.072;2022-12-24T10:52:18;96415.38;;;7.97;77.64
35878;BME280;21982;49.804;24.072;2022-12-24T10:57:44;96424.78;;;8.13;77.42
35878;BME280;21982;49.804;24.072;2022-12-24T11:00:19;96421.53;;;8.11;77.43
35878;BME280;21982;49.804;24.072;2022-12-24T11:02:47;96415.81;;;8.07;78.14
35878;BME280;21982;49.804;24.072;2022-12-24T11:05:35;96409.97;;;8.12;77.39
35878;BME280;21982;49.804;24.072;2022-12-24T11:10:43;96416.94;;;8.26;77.51
35878;BME280;21982;49.804;24.072;2022-12-24T11:13:37;96424.28;;;8.30;77.57
35878;BME280;21982;49.804;24.072;2022-12-24T11:16:07;96419.25;;;8.35;77.59
35878;BME280;21982;49.804;24.072;2022-12-24T11:18:37;96396.25;;;8.23;78.29
35878;BME280;21982;49.804;24.072;2022-12-24T11:21:04;96422.53;;;8.44;77.47
35878;BME280;21982;49.804;24.072;2022-12-24T11:23:30;96362.28;;;8.06;77.75
35878;BME280;21982;49.804;24.072;2022-12-24T11:25:56;96412.19;;;8.43;77.33
35878;BME280;21982;49.804;24.072;2022-12-24T11:28:28;96417.69;;;8.48;77.26
35878;BME280;21982;49.804;24.072;2022-12-24T11:33:50;96432.34;;;8.57;77.40
35878;BME280;21982;49.804;24.072;2022-12-24T11:36:22;96433.16;;;8.57;77.26
35878;BME280;21982;49.804;24.072;2022-12-24T11:38:52;96416.66;;;8.42;77.00
35878;BME280;21982;49.804;24.072;2022-12-24T11:41:18;96426.97;;;8.37;77.19
35878;BME280;21982;49.804;24.072;2022-12-24T11:43:49;96435.97;;;8.49;77.18
35878;BME280;21982;49.804;24.072;2022-12-24T11:46:18;96431.94;;;8.53;77.63
35878;BME280;21982;49.804;24.072;2022-12-24T11:48:45;96424.59;;;8.49;77.26
35878;BME280;21982;49.804;24.072;2022-12-24T11:51:21;96441.84;;;8.51;76.72
35878;BME280;21982;49.804;24.072;2022-12-24T11:53:50;96425.53;;;8.34;77.33
35878;BME280;21982;49.804;24.072;2022-12-24T11:56:56;96437.47;;;8.30;77.05
35878;BME280;21982;49.804;24.072;2022-12-24T11:59:43;96353.41;;;7.80;77.52
35878;BME280;21982;49.804;24.072;2022-12-24T12:02:33;96339.38;;;7.72;77.81
35878;BME280;21982;49.804;24.072;2022-12-24T12:05:31;96438.47;;;8.29;77.59
35878;BME280;21982;49.804;24.072;2022-12-24T12:08:06;96428.13;;;8.28;77.21
35878;BME280;21982;49.804;24.072;2022-12-24T12:10:36;96430.53;;;8.23;77.31
35878;BME280;21982;49.804;24.072;2022-12-24T12:13:22;96437.44;;;8.24;77.22
35878;BME280;21982;49.804;24.072;2022-12-24T12:18:32;96326.41;;;7.43;77.27
35878;BME280;21982;49.804;24.072;2022-12-24T12:21:06;96452.63;;;8.22;77.97
35878;BME280;21982;49.804;24.072;2022-12-24T12:23:56;96448.75;;;8.18;77.42
35878;BME280;21982;49.804;24.072;2022-12-24T12:26:25;96413.69;;;7.89;77.36
35878;BME280;21982;49.804;24.072;2022-12-24T12:29:29;96434.84;;;8.02;77.29
35878;BME280;21982;49.804;24.072;2022-12-24T12:32:03;96458.38;;;8.04;77.60
35878;BME280;21982;49.804;24.072;2022-12-24T12:34:34;96438.00;;;7.85;77.93
35878;BME280;21982;49.804;24.072;2022-12-24T12:37:15;96461.41;;;8.01;77.75
35878;BME280;21982;49.804;24.072;2022-12-24T12:39:42;96479.22;;;7.92;77.98
35878;BME280;21982;49.804;24.072;2022-12-24T12:42:19;96432.16;;;7.68;77.24
35878;BME280;21982;49.804;24.072;2022-12-24T12:50:24;96470.81;;;7.82;78.06
35878;BME280;21982;49.804;24.072;2022-12-24T12:58:16;96462.59;;;7.70;78.28
35878;BME280;21982;49.804;24.072;2022-12-24T13:00:43;96474.59;;;7.73;78.21
35878;BME280;21982;49.804;24.072;2022-12-24T13:12:09;96481.03;;;7.92;77.50
35878;BME280;21982;49.804;24.072;2022-12-24T13:14:53;96482.41;;;7.88;77.87
35878;BME280;21982;49.804;24.072;2022-12-24T13:20:18;96476.97;;;7.89;77.60
35878;BME280;21982;49.804;24.072;2022-12-24T13:23:11;96477.59;;;7.91;77.79
35878;BME280;21982;49.804;24.072;2022-12-24T13:25:43;96482.84;;;7.91;77.97
35878;BME280;21982;49.804;24.072;2022-12-24T13:30:46;96474.44;;;7.81;77.78
35878;BME280;21982;49.804;24.072;2022-12-24T13:33:44;96492.34;;;7.86;77.68
35878;BME280;21982;49.804;24.072;2022-12-24T13:36:08;96386.34;;;7.13;77.65
35878;BME280;21982;49.804;24.072;2022-12-24T13:38:48;96483.31;;;7.73;77.93
35878;BME280;21982;49.804;24.072;2022-12-24T13:49:40;96504.19;;;7.75;78.17
35878;BME280;21982;49.804;24.072;2022-12-24T13:54:46;96509.84;;;7.72;78.16
35878;BME280;21982;49.804;24.072;2022-12-24T14:00:28;96426.66;;;7.14;77.89
35878;BME280;21982;49.804;24.072;2022-12-24T14:02:55;96517.50;;;7.67;78.43
35878;BME280;21982;49.804;24.072;2022-12-24T14:05:47;96523.03;;;7.72;78.51
35878;BME280;21982;49.804;24.072;2022-12-24T14:08:27;96524.09;;;7.78;77.94
35878;BME280;21982;49.804;24.072;2022-12-24T14:11:07;96492.88;;;7.53;77.93
35878;BME280;21982;49.804;24.072;2022-12-24T14:16:14;96450.06;;;7.30;78.42
35878;BME280;21982;49.804;24.072;2022-12-24T14:18:45;96539.47;;;7.74;78.38
35878;BME280;21982;49.804;24.072;2022-12-24T14:21:16;96542.91;;;7.74;78.66
35878;BME280;21982;49.804;24.072;2022-12-24T14:24:05;96544.34;;;7.77;78.14
35878;BME280;21982;49.804;24.072;2022-12-24T14:26:43;96540.09;;;7.76;78.01
35878;BME280;21982;49.804;24.072;2022-12-24T14:29:20;96542.91;;;7.74;78.17
35878;BME280;21982;49.804;24.072;2022-12-24T14:31:51;96531.84;;;7.64;78.11
35878;BME280;21982;49.804;24.072;2022-12-24T14:34:17;96550.38;;;7.71;79.19
35878;BME280;21982;49.804;24.072;2022-12-24T14:36:44;96546.75;;;7.72;78.98
35878;BME280;21982;49.804;24.072;2022-12-24T15:00:00;96581.00;;;7.72;79.27
35878;BME280;21982;49.804;24.072;2022-12-24T15:02:50;96550.19;;;7.51;78.90
35878;BME280;21982;49.804;24.072;2022-12-24T15:05:25;96589.91;;;7.71;79.07
35878;BME280;21982;49.804;24.072;2022-12-24T15:08:02;96579.06;;;7.81;79.21
35878;BME280;21982;49.804;24.072;2022-12-24T15:10:39;96534.28;;;7.59;78.86
35878;BME280;21982;49.804;24.072;2022-12-24T15:13:11;96593.28;;;8.07;79.00
35878;BME280;21982;49.804;24.072;2022-12-24T15:15:43;96600.47;;;7.92;78.98
35878;BME280;21982;49.804;24.072;2022-12-24T15:18:14;96514.75;;;7.54;79.03
35878;BME280;21982;49.804;24.072;2022-12-24T15:20:45;96598.81;;;8.13;78.93
35878;BME280;21982;49.804;24.072;2022-12-24T15:23:19;96597.19;;;8.12;78.47
35878;BME280;21982;49.804;24.072;2022-12-24T15:25:45;96556.78;;;7.83;78.81
35878;BME280;21982;49.804;24.072;2022-12-24T15:28:17;96604.34;;;8.18;78.83
35878;BME280;21982;49.804;24.072;2022-12-24T15:30:44;96603.34;;;8.19;79.63
35878;BME280;21982;49.804;24.072;2022-12-24T15:33:09;96563.00;;;7.97;79.24
35878;BME280;21982;49.804;24.072;2022-12-24T15:38:21;96601.13;;;8.22;78.20
35878;BME280;21982;49.804;24.072;2022-12-24T15:40:48;96586.00;;;8.10;78.96
35878;BME280;21982;49.804;24.072;2022-12-24T15:43:14;96610.75;;;8.30;79.18
35878;BME280;21982;49.804;24.072;2022-12-24T15:45:42;96616.28;;;8.35;78.60
35878;BME280;21982;49.804;24.072;2022-12-24T15:48:10;96612.00;;;8.34;78.66
35878;BME280;21982;49.804;24.072;2022-12-24T15:50:46;96615.66;;;8.33;78.09
35878;BME280;21982;49.804;24.072;2022-12-24T15:53:16;96616.03;;;8.30;78.95
35878;BME280;21982;49.804;24.072;2022-12-24T15:55:46;96617.66;;;8.31;78.14
35878;BME280;21982;49.804;24.072;2022-12-24T16:03:34;96623.31;;;8.28;79.29
35878;BME280;21982;49.804;24.072;2022-12-24T16:06:03;96616.22;;;8.28;78.83
35878;BME280;21982;49.804;24.072;2022-12-24T16:08:41;96626.63;;;8.36;78.87
35878;BME280;21982;49.804;24.072;2022-12-24T16:13:40;96491.41;;;7.51;78.56
35878;BME280;21982;49.804;24.072;2022-12-24T16:16:18;96625.06;;;8.21;78.53
35878;BME280;21982;49.804;24.072;2022-12-24T16:23:54;96613.88;;;8.19;79.35
35878;BME280;21982;49.804;24.072;2022-12-24T16:26:20;96619.16;;;8.19;79.28
35878;BME280;21982;49.804;24.072;2022-12-24T16:28:46;96609.00;;;8.16;79.42
35878;BME280;21982;49.804;24.072;2022-12-24T16:31:27;96621.03;;;8.25;79.31
35878;BME280;21982;49.804;24.072;2022-12-24T16:33:54;96600.75;;;8.04;79.04
35878;BME280;21982;49.804;24.072;2022-12-24T16:36:21;96633.34;;;8.18;78.81
35878;BME280;21982;49.804;24.072;2022-12-24T16:38:47;96619.22;;;8.04;78.88
35878;BME280;21982;49.804;24.072;2022-12-24T16:41:31;96631.28;;;8.13;78.73
35878;BME280;21982;49.804;24.072;2022-12-24T16:44:16;96654.56;;;8.10;79.06
35878;BME280;21982;49.804;24.072;2022-12-24T16:46:41;96643.38;;;8.07;79.19
35878;BME280;21982;49.804;24.072;2022-12-24T16:49:17;96641.00;;;8.13;78.73
35878;BME280;21982;49.804;24.072;2022-12-24T16:51:44;96674.81;;;8.24;78.88
35878;BME280;21982;49.804;24.072;2022-12-24T16:54:13;96664.25;;;8.24;78.82
35878;BME280;21982;49.804;24.072;2022-12-24T16:56:40;96645.22;;;8.07;79.23
35878;BME280;21982;49.804;24.072;2022-12-24T16:59:07;96539.13;;;7.41;78.98
35878;BME280;21982;49.804;24.072;2022-12-24T17:01:35;96667.88;;;8.23;79.09
35878;BME280;21982;49.804;24.072;2022-12-24T17:04:00;96682.00;;;8.15;78.87
35878;BME280;21982;49.804;24.072;2022-12-24T17:06:26;96663.59;;;8.00;79.12
35878;BME280;21982;49.804;24.072;2022-12-24T17:08:51;96687.84;;;8.11;79.31
35878;BME280;21982;49.804;24.072;2022-12-24T17:11:21;96677.56;;;8.16;79.63
35878;BME280;21982;49.804;24.072;2022-12-24T17:13:46;96690.94;;;8.14;79.65
35878;BME280;21982;49.804;24.072;2022-12-24T17:16:13;96645.75;;;7.81;79.39
35878;BME280;21982;49.804;24.072;2022-12-24T17:18:38;96675.84;;;8.08;79.17